Time;durP1;ratioP1;P1;durP2;ratioP2;P2;SDS_P1;SDS_P2;PMS_P1;PMS_P2;Temp;Humidity;BMP_temperature;BMP_pressure;BME280_temperature;BME280_humidity;BME280_pressure;Samples;Min_cycle;Max_cycle;Signal;HPM_P1;HPM_P2
2022/09/03 00:00:26;;;;;;;340.23;156.27;;;14.00;99.90;;;;;;5037099;28;20273;-71
2022/09/03 00:03:04;;;;;;;429.43;195.70;;;13.80;99.90;;;;;;5036724;28;20216;-70
2022/09/03 00:05:44;;;;;;;361.30;164.63;;;13.70;1.00;;;;;;5041947;28;20983;-70
2022/09/03 00:08:32;;;;;;;328.80;151.20;;;13.70;1.00;;;;;;5041048;28;20211;-71
2022/09/03 00:11:46;;;;;;;323.00;149.27;;;13.80;1.00;;;;;;5040673;28;20237;-70
2022/09/03 00:14:23;;;;;;;354.87;165.30;;;13.60;47.90;;;;;;5025762;28;20230;-70
2022/09/03 00:17:13;;;;;;;378.97;174.50;;;13.60;99.90;;;;;;5039735;28;20207;-70
2022/09/03 00:19:46;;;;;;;368.57;168.73;;;13.70;25.60;;;;;;5035640;28;20257;-70
2022/09/03 00:22:22;;;;;;;351.63;161.20;;;13.70;1.00;;;;;;5041699;28;20208;-69
2022/09/03 00:24:49;;;;;;;332.07;156.50;;;13.60;1.00;;;;;;5040380;28;20207;-70
2022/09/03 00:27:24;;;;;;;348.80;161.63;;;13.70;1.00;;;;;;5039394;28;20187;-70
2022/09/03 00:29:58;;;;;;;335.13;154.27;;;13.50;1.00;;;;;;5040095;28;20215;-69
2022/09/03 00:32:36;;;;;;;342.47;159.80;;;13.60;1.00;;;;;;5043077;28;20223;-69
2022/09/03 00:35:05;;;;;;;367.13;167.23;;;13.60;1.00;;;;;;5036439;28;20719;-70
2022/09/03 00:37:31;;;;;;;382.43;177.17;;;13.60;1.00;;;;;;5036830;28;20239;-70
2022/09/03 00:39:57;;;;;;;336.10;155.57;;;;;;;;;;5043532;28;20749;-70
2022/09/03 00:42:49;;;;;;;361.97;168.20;;;13.50;99.20;;;;;;5045438;28;20179;-70
2022/09/03 00:45:39;;;;;;;362.30;168.03;;;13.80;99.90;;;;;;5054203;28;20265;-70
2022/09/03 00:48:24;;;;;;;357.57;161.67;;;13.30;99.90;;;;;;5039938;28;20216;-70
2022/09/03 00:50:50;;;;;;;354.33;159.80;;;;;;;;;;5040974;28;20219;-70
2022/09/03 00:53:21;;;;;;;326.73;150.67;;;13.40;1.00;;;;;;5041841;28;20212;-70
2022/09/03 00:56:06;;;;;;;361.73;168.57;;;15.70;1.00;;;;;;5038957;28;20239;-70
2022/09/03 00:58:42;;;;;;;357.37;163.13;;;13.20;1.00;;;;;;5041123;28;20693;-71
2022/09/03 01:01:26;;;;;;;340.30;157.30;;;13.50;99.90;;;;;;5045915;28;20210;-70
2022/09/03 01:04:35;;;;;;;338.97;154.13;;;13.10;1.00;;;;;;5042318;28;20215;-70
2022/09/03 01:07:30;;;;;;;337.73;156.87;;;13.10;99.90;;;;;;4984358;28;20220;-71
2022/09/03 01:10:07;;;;;;;341.30;152.23;;;13.00;16.40;;;;;;5043465;28;20208;-71
2022/09/03 01:12:51;;;;;;;367.60;164.17;;;13.20;1.00;;;;;;5043476;28;20553;-70
2022/09/03 01:15:34;;;;;;;347.07;158.50;;;13.30;1.00;;;;;;5040359;28;20220;-70
2022/09/03 01:18:20;;;;;;;332.13;152.33;;;13.30;1.00;;;;;;5064045;28;20270;-71
2022/09/03 01:21:12;;;;;;;333.07;155.87;;;13.30;1.00;;;;;;5057620;28;20206;-71
2022/09/03 01:24:11;;;;;;;347.57;158.93;;;13.20;1.00;;;;;;5059385;28;20303;-70
2022/09/03 01:26:58;;;;;;;337.47;155.23;;;13.20;99.90;;;;;;5062083;28;20224;-70
2022/09/03 01:29:55;;;;;;;330.10;148.60;;;13.10;99.90;;;;;;5046337;28;20302;-72
2022/09/03 01:32:43;;;;;;;373.00;169.27;;;;;;;;;;5044772;28;20298;-70
2022/09/03 01:35:27;;;;;;;336.30;151.93;;;13.00;99.90;;;;;;5041163;28;20724;-70
2022/09/03 01:38:12;;;;;;;341.30;150.70;;;13.10;90.90;;;;;;5040931;28;20222;-71
2022/09/03 01:42:12;;;;;;;359.53;163.17;;;13.10;99.90;;;;;;5047685;28;20225;-70
2022/09/03 01:43:53;;;;;;;329.10;149.00;;;13.20;99.90;;;;;;5060421;28;20218;-70
2022/09/03 01:46:24;;;;;;;345.47;156.60;;;13.20;75.50;;;;;;5058146;28;20718;-70
2022/09/03 01:49:10;;;;;;;397.70;185.20;;;13.20;1.00;;;;;;5053554;28;20271;-70
2022/09/03 01:51:36;;;;;;;358.20;163.47;;;;;;;;;;5058981;28;20191;-70
2022/09/03 01:54:37;;;;;;;370.17;167.57;;;13.20;99.90;;;;;;5058803;28;20207;-70
2022/09/03 01:57:33;;;;;;;351.03;161.27;;;13.20;1.00;;;;;;5037045;28;20425;-70
2022/09/03 02:00:12;;;;;;;348.83;158.37;;;13.10;99.90;;;;;;5034294;28;20674;-69
2022/09/03 02:02:40;;;;;;;370.27;170.43;;;13.50;1.00;;;;;;5035384;28;20222;-70
2022/09/03 02:05:08;;;;;;;399.40;180.20;;;;;;;;;;5021786;28;20349;-69
2022/09/03 02:07:37;;;;;;;335.50;154.37;;;13.20;99.90;;;;;;5040128;28;20203;-71
2022/09/03 02:10:07;;;;;;;384.10;175.77;;;17.20;1.00;;;;;;5036933;28;20222;-70
2022/09/03 02:12:37;;;;;;;362.00;166.93;;;13.20;1.00;;;;;;5034915;28;20698;-70
2022/09/03 02:15:07;;;;;;;364.00;167.97;;;13.10;99.90;;;;;;5039077;28;22841;-70
2022/09/03 02:17:34;;;;;;;351.10;162.30;;;13.20;99.90;;;;;;5042422;28;20207;-69
2022/09/03 02:20:05;;;;;;;369.80;175.93;;;13.20;1.00;;;;;;5032528;28;20458;-72
2022/09/03 02:22:31;;;;;;;341.93;157.00;;;;;;;;;;5035617;28;20250;-70
2022/09/03 02:24:57;;;;;;;402.43;184.57;;;;;;;;;;5030095;28;20311;-70
2022/09/03 02:27:23;;;;;;;362.83;164.03;;;;;;;;;;5037540;28;20594;-69
2022/09/03 02:29:49;;;;;;;329.03;150.93;;;;;;;;;;5041583;28;20298;-70
2022/09/03 02:32:15;;;;;;;376.20;172.13;;;;;;;;;;5035047;28;20221;-71
2022/09/03 02:34:42;;;;;;;330.90;152.87;;;13.10;99.90;;;;;;5038435;28;20219;-70
2022/09/03 02:37:13;;;;;;;395.50;180.97;;;13.10;99.90;;;;;;5037999;28;20224;-70
2022/09/03 02:39:40;;;;;;;366.87;168.23;;;;;;;;;;5037451;28;20774;-70
2022/09/03 02:42:06;;;;;;;363.80;164.17;;;;;;;;;;5038594;28;20192;-70
2022/09/03 02:44:34;;;;;;;365.33;167.90;;;12.90;99.90;;;;;;5035348;28;20246;-71
2022/09/03 02:47:03;;;;;;;345.70;157.27;;;12.90;1.00;;;;;;5042750;28;20245;-71
2022/09/03 02:49:29;;;;;;;384.30;173.33;;;12.90;99.90;;;;;;5033295;28;20302;-70
2022/09/03 02:52:00;;;;;;;364.77;165.63;;;13.00;99.90;;;;;;5037362;28;20219;-70
2022/09/03 02:54:26;;;;;;;356.83;162.93;;;;;;;;;;5036437;28;20291;-69
2022/09/03 02:56:52;;;;;;;378.77;172.83;;;;;;;;;;5037746;28;20283;-70
2022/09/03 02:59:18;;;;;;;362.03;166.13;;;;;;;;;;5035566;28;20306;-70
2022/09/03 03:01:44;;;;;;;338.00;154.43;;;;;;;;;;5039717;28;20302;-70
2022/09/03 03:04:10;;;;;;;360.17;164.00;;;;;;;;;;5035675;28;20211;-70
2022/09/03 03:06:36;;;;;;;354.07;165.57;;;;;;;;;;5040005;28;20184;-69
2022/09/03 03:09:03;;;;;;;382.90;173.93;;;;;;;;;;5034265;28;20176;-70
2022/09/03 03:11:29;;;;;;;390.63;178.83;;;;;;;;;;5037123;28;20211;-70
2022/09/03 03:13:55;;;;;;;336.47;153.00;;;12.70;1.00;;;;;;5034983;28;20230;-70
2022/09/03 03:16:21;;;;;;;381.80;175.67;;;;;;;;;;5033804;28;20613;-69
2022/09/03 03:18:47;;;;;;;400.30;181.93;;;;;;;;;;5031861;28;20665;-70
2022/09/03 03:21:15;;;;;;;344.90;156.57;;;12.40;99.90;;;;;;5036237;28;20187;-70
2022/09/03 03:23:41;;;;;;;390.83;178.30;;;12.40;99.90;;;;;;5030885;28;20751;-70
2022/09/03 03:26:17;;;;;;;368.63;168.20;;;12.30;1.00;;;;;;5035875;28;20216;-70
2022/09/03 03:28:43;;;;;;;347.40;157.37;;;;;;;;;;5040610;28;20215;-70
2022/09/03 03:31:15;;;;;;;361.00;166.07;;;12.20;1.00;;;;;;5035470;28;20708;-71
2022/09/03 03:33:41;;;;;;;360.43;161.73;;;;;;;;;;5034130;28;20306;-70
2022/09/03 03:36:14;;;;;;;419.60;187.20;;;12.00;99.90;;;;;;5033685;28;20713;-70
2022/09/03 03:38:41;;;;;;;366.90;165.63;;;;;;;;;;5038378;28;20304;-69
2022/09/03 03:41:10;;;;;;;352.53;156.03;;;11.90;99.90;;;;;;5037367;28;20223;-71
2022/09/03 03:43:36;;;;;;;338.83;151.70;;;;;;;;;;5035842;28;20241;-70
2022/09/03 03:46:02;;;;;;;376.50;167.07;;;;;;;;;;5036787;28;20219;-71
2022/09/03 03:48:28;;;;;;;376.20;168.07;;;;;;;;;;5036723;28;20283;-70
2022/09/03 03:50:54;;;;;;;371.53;166.60;;;;;;;;;;5032867;28;20215;-72
2022/09/03 03:53:20;;;;;;;396.03;175.57;;;;;;;;;;5037241;28;20219;-69
2022/09/03 03:56:00;;;;;;;381.30;169.23;;;11.80;1.00;;;;;;5033198;28;20243;-70
2022/09/03 03:58:28;;;;;;;373.67;163.13;;;11.60;1.00;;;;;;5033400;28;20219;-70
2022/09/03 04:00:53;;;;;;;366.07;161.33;;;11.50;1.00;;;;;;5036009;28;20469;-70
2022/09/03 04:03:19;;;;;;;371.33;163.27;;;;;;;;;;5039559;28;20461;-69
2022/09/03 04:05:59;;;;;;;387.47;173.20;;;11.60;1.00;;;;;;5037163;28;20277;-69
2022/09/03 04:08:25;;;;;;;407.07;181.63;;;;;;;;;;5031382;28;20211;-71
2022/09/03 04:10:51;;;;;;;380.57;168.50;;;;;;;;;;5036328;28;20215;-70
2022/09/03 04:13:17;;;;;;;359.80;159.37;;;;;;;;;;5034650;28;20211;-70
2022/09/03 04:15:43;;;;;;;375.97;168.53;;;;;;;;;;5034318;28;20180;-71
2022/09/03 04:18:09;;;;;;;339.23;149.50;;;;;;;;;;5036444;28;20560;-70
2022/09/03 04:20:35;;;;;;;338.83;149.93;;;;;;;;;;5039838;28;20214;-69
2022/09/03 04:23:02;;;;;;;348.60;151.17;;;11.70;1.00;;;;;;5037068;28;20207;-70
2022/09/03 04:25:27;;;;;;;353.73;154.63;;;;;;;;;;5032715;28;20850;-71
2022/09/03 04:27:53;;;;;;;343.33;149.57;;;;;;;;;;5040030;28;20203;-71
2022/09/03 04:30:19;;;;;;;346.70;152.27;;;;;;;;;;5040597;28;20183;-70
2022/09/03 04:32:55;;;;;;;366.43;160.60;;;;;;;;;;5045025;28;20639;-71
2022/09/03 04:35:24;;;;;;;364.70;159.70;;;12.00;1.00;;;;;;5032054;28;20337;-71
2022/09/03 04:37:54;;;;;;;375.87;164.40;;;;;;;;;;5033605;28;20722;-69
2022/09/03 04:40:19;;;;;;;361.30;161.43;;;;;;;;;;5033195;28;20234;-70
2022/09/03 04:42:45;;;;;;;364.53;163.77;;;;;;;;;;5035011;28;20637;-71
2022/09/03 04:45:17;;;;;;;353.17;154.90;;;;;;;;;;5041204;28;20641;-70
2022/09/03 04:47:45;;;;;;;355.90;156.27;;;;;;;;;;5039967;28;20596;-70
2022/09/03 04:50:11;;;;;;;355.87;156.97;;;;;;;;;;5036229;28;20216;-69
2022/09/03 04:52:37;;;;;;;347.03;152.80;;;;;;;;;;5037964;28;20232;-71
2022/09/03 04:55:04;;;;;;;342.17;150.83;;;;;;;;;;5042723;28;20238;-71
2022/09/03 04:57:34;;;;;;;345.07;154.97;;;;;;;;;;5038305;28;20932;-70
2022/09/03 05:00:00;;;;;;;333.47;146.17;;;;;;;;;;5036654;28;20840;-71
2022/09/03 05:02:26;;;;;;;337.17;149.97;;;;;;;;;;5043548;28;20223;-70
2022/09/03 05:04:52;;;;;;;354.63;159.60;;;;;;;;;;5038220;28;20249;-69
2022/09/03 05:07:19;;;;;;;363.17;161.90;;;;;;;;;;5035666;28;20211;-69
2022/09/03 05:09:45;;;;;;;361.50;161.73;;;;;;;;;;5049224;28;20208;-69
2022/09/03 05:12:11;;;;;;;389.13;172.53;;;;;;;;;;5034127;28;20199;-70
2022/09/03 05:14:37;;;;;;;366.20;164.00;;;;;;;;;;5034123;28;20262;-70
2022/09/03 05:17:03;;;;;;;351.93;152.57;;;;;;;;;;5039910;28;20223;-70
2022/09/03 05:19:30;;;;;;;362.60;158.80;;;;;;;;;;5036642;28;20204;-70
2022/09/03 05:21:56;;;;;;;348.87;152.43;;;;;;;;;;5035561;28;20239;-70
2022/09/03 05:24:23;;;;;;;341.23;150.40;;;;;;;;;;5041158;28;20242;-65
2022/09/03 05:26:49;;;;;;;359.20;158.53;;;;;;;;;;5045524;28;20211;-65
2022/09/03 05:29:15;;;;;;;359.97;160.70;;;;;;;;;;5038671;28;21079;-65
2022/09/03 05:31:41;;;;;;;343.03;151.90;;;;;;;;;;5040892;28;20219;-66
2022/09/03 05:34:08;;;;;;;389.50;170.87;;;;;;;;;;5041149;28;20274;-67
2022/09/03 05:36:36;;;;;;;378.73;167.80;;;12.10;1.00;;;;;;5039810;28;20237;-67
2022/09/03 05:39:02;;;;;;;333.93;145.73;;;;;;;;;;5045105;28;20610;-68
2022/09/03 05:41:28;;;;;;;602.93;276.10;;;;;;;;;;5032365;28;20215;-69
2022/09/03 05:43:57;;;;;;;367.17;159.10;;;12.30;1.00;;;;;;5038980;28;20243;-69
2022/09/03 05:46:30;;;;;;;357.57;156.10;;;12.30;1.00;;;;;;5046483;28;20700;-69
2022/09/03 05:48:56;;;;;;;380.67;167.67;;;;;;;;;;5037050;28;20221;-69
2022/09/03 05:51:22;;;;;;;395.93;172.00;;;;;;;;;;5042417;28;20207;-69
2022/09/03 05:53:48;;;;;;;386.60;169.87;;;;;;;;;;5033687;28;20311;-69
2022/09/03 05:56:17;;;;;;;392.10;172.40;;;12.50;1.00;;;;;;5036340;28;20207;-69
2022/09/03 05:58:45;;;;;;;411.90;183.40;;;12.60;1.00;;;;;;5036855;28;20207;-69
2022/09/03 06:01:19;;;;;;;402.53;176.10;;;12.70;1.00;;;;;;5040661;28;20663;-69
2022/09/03 06:03:51;;;;;;;427.53;190.80;;;12.80;1.00;;;;;;5037137;28;20205;-69
2022/09/03 06:06:17;;;;;;;352.00;154.30;;;12.80;1.00;;;;;;5035135;28;20194;-70
2022/09/03 06:08:43;;;;;;;426.70;191.47;;;;;;;;;;5038740;28;20215;-69
2022/09/03 06:11:10;;;;;;;433.07;192.07;;;13.10;1.00;;;;;;5040168;28;22325;-69
2022/09/03 06:13:36;;;;;;;348.43;153.37;;;;;;;;;;5040912;28;20712;-69
2022/09/03 06:16:04;;;;;;;344.23;151.07;;;13.20;1.00;;;;;;5042991;28;20215;-69
2022/09/03 06:18:30;;;;;;;341.80;157.40;;;;;;;;;;5040279;28;20661;-68
2022/09/03 06:21:01;;;;;;;405.43;181.70;;;13.30;1.00;;;;;;5049548;28;20221;-69
2022/09/03 06:23:28;;;;;;;363.23;160.50;;;13.40;1.00;;;;;;5039698;28;20219;-69
2022/09/03 06:26:08;;;;;;;354.47;152.60;;;13.30;1.00;;;;;;5044242;28;20211;-69
2022/09/03 06:28:36;;;;;;;381.33;167.90;;;13.50;1.00;;;;;;5039309;28;20736;-69
2022/09/03 06:31:04;;;;;;;354.67;154.97;;;13.50;1.00;;;;;;5038986;28;20212;-69
2022/09/03 06:33:31;;;;;;;370.13;167.93;;;13.50;1.00;;;;;;5040547;28;20294;-69
2022/09/03 06:35:58;;;;;;;345.30;152.20;;;13.50;1.00;;;;;;5042453;28;20184;-69
2022/09/03 06:38:25;;;;;;;359.10;159.83;;;13.70;1.00;;;;;;5041618;28;20314;-69
2022/09/03 06:40:56;;;;;;;351.60;156.87;;;13.70;1.00;;;;;;5039444;28;20207;-69
2022/09/03 06:43:22;;;;;;;336.40;146.97;;;13.80;1.00;;;;;;5041079;28;20302;-69
2022/09/03 06:45:56;;;;;;;382.20;169.10;;;13.70;1.00;;;;;;5035962;28;20183;-69
2022/09/03 06:48:22;;;;;;;385.13;169.73;;;;;;;;;;5033617;28;20897;-69
2022/09/03 06:51:18;;;;;;;370.10;164.27;;;14.00;99.90;;;;;;5039491;28;20218;-70
2022/09/03 06:53:46;;;;;;;338.57;149.97;;;14.00;99.90;;;;;;5036727;28;20223;-69
2022/09/03 06:56:13;;;;;;;386.23;173.33;;;14.10;99.90;;;;;;5037196;28;20222;-69
2022/09/03 06:58:42;;;;;;;349.23;154.97;;;14.20;99.90;;;;;;5043309;28;20216;-69
2022/09/03 07:01:10;;;;;;;358.10;160.70;;;14.20;99.90;;;;;;5040396;28;20211;-69
2022/09/03 07:03:37;;;;;;;352.27;157.60;;;14.20;99.90;;;;;;5043489;28;20210;-69
2022/09/03 07:06:05;;;;;;;381.43;179.50;;;14.40;6.00;;;;;;5035082;28;20172;-69
2022/09/03 07:08:32;;;;;;;387.00;180.25;;;14.60;1.00;;;;;;5037849;28;20290;-69
2022/09/03 07:11:08;;;;;;;408.57;180.63;;;14.60;99.90;;;;;;5039960;28;20744;-73
2022/09/03 07:13:34;;;;;;;441.43;200.00;;;;;;;;;;5027354;28;20214;-75
2022/09/03 07:16:08;;;;;;;394.70;176.93;;;14.70;1.00;;;;;;5040370;28;20223;-74
2022/09/03 07:18:34;;;;;;;373.03;170.07;;;14.70;93.40;;;;;;5040067;28;20210;-74
2022/09/03 07:21:01;;;;;;;434.77;196.93;;;14.80;99.90;;;;;;5033192;28;20218;-72
2022/09/03 07:23:28;;;;;;;369.03;169.67;;;15.30;1.00;;;;;;5033558;28;20800;-73
2022/09/03 07:25:58;;;;;;;376.37;168.07;;;15.00;99.90;;;;;;5034774;28;20212;-73
2022/09/03 07:28:25;;;;;;;362.67;162.53;;;;;;;;;;5038965;28;20294;-72
2022/09/03 07:30:51;;;;;;;357.03;160.57;;;15.30;1.00;;;;;;5038257;28;20235;-75
2022/09/03 07:33:17;;;;;;;359.63;164.60;;;;;;;;;;5040854;28;20270;-73
2022/09/03 07:35:43;;;;;;;415.00;191.00;;;;;;;;;;5035440;28;20250;-72
2022/09/03 07:38:09;;;;;;;381.07;174.27;;;15.60;2.00;;;;;;5035555;28;20247;-68
2022/09/03 07:40:35;;;;;;;355.00;162.57;;;;;;;;;;5041934;28;20258;-68
2022/09/03 07:43:03;;;;;;;364.33;168.10;;;;;;;;;;5039908;28;20238;-60
2022/09/03 07:45:29;;;;;;;362.80;172.70;;;;;;;;;;5039704;28;20188;-62
2022/09/03 07:47:54;;;;;;;399.00;188.73;;;;;;;;;;5041059;28;20738;-60
2022/09/03 07:50:20;;;;;;;364.37;173.33;;;;;;;;;;5036730;28;20215;-60
2022/09/03 07:52:47;;;;;;;407.80;193.67;;;;;;;;;;5034440;28;20219;-68
2022/09/03 07:55:13;;;;;;;373.23;175.13;;;17.30;53.40;;;;;;5039558;28;22253;-69
2022/09/03 07:57:39;;;;;;;408.43;192.13;;;;;;;;;;5036355;28;20211;-68
2022/09/03 08:00:07;;;;;;;384.83;182.20;;;17.60;1.00;;;;;;5035644;28;20222;-68
2022/09/03 08:02:33;;;;;;;399.80;194.53;;;17.40;99.90;;;;;;5037225;28;20310;-69
2022/09/03 08:05:00;;;;;;;417.55;200.25;;;;;;;;;;5034916;28;20230;-69
2022/09/03 08:07:28;;;;;;;333.23;165.93;;;17.10;1.00;;;;;;5041968;28;20215;-69
2022/09/03 08:09:54;;;;;;;389.45;185.20;;;;;;;;;;5032283;28;20704;-69
2022/09/03 08:12:20;;;;;;;354.58;179.23;;;;;;;;;;5038174;28;20180;-68
2022/09/03 08:14:46;;;;;;;426.30;212.43;;;;;;;;;;5033741;28;20234;-68
2022/09/03 08:17:12;;;;;;;384.13;192.88;;;;;;;;;;5038023;28;20218;-69
2022/09/03 08:19:39;;;;;;;340.53;179.47;;;;;;;;;;5039236;28;20241;-69
2022/09/03 08:22:05;;;;;;;361.92;180.38;;;;;;;;;;5035499;28;20589;-68
2022/09/03 08:24:32;;;;;;;361.50;179.23;;;17.80;1.00;;;;;;5039962;28;20203;-68
2022/09/03 08:26:59;;;;;;;557.30;280.27;;;;;;;;;;5029573;28;20599;-69
2022/09/03 08:29:26;;;;;;;360.43;179.77;;;;;;;;;;5029945;28;20227;-68
2022/09/03 08:31:52;;;;;;;377.63;186.07;;;17.90;1.00;;;;;;5040628;28;20223;-68
2022/09/03 08:34:18;;;;;;;351.10;172.63;;;;;;;;;;5038572;28;20277;-68
2022/09/03 08:36:45;;;;;;;393.23;200.45;;;;;;;;;;5036342;28;20290;-69
2022/09/03 08:39:12;;;;;;;387.42;182.43;;;;;;;;;;5040505;28;20175;-67
2022/09/03 08:41:52;;;;;;;347.97;175.27;;;18.10;1.00;;;;;;5042773;28;20221;-71
2022/09/03 08:44:38;;;;;;;342.40;178.50;;;18.20;1.00;;;;;;5038955;28;20218;-68
2022/09/03 08:47:22;;;;;;;377.67;192.47;;;18.60;1.00;;;;;;5038478;28;20203;-69
2022/09/03 08:50:11;;;;;;;357.17;183.97;;;18.30;99.90;;;;;;5039310;28;20671;-69
2022/09/03 08:52:49;;;;;;;370.87;187.53;;;18.40;99.90;;;;;;5040413;28;20211;-68
2022/09/03 08:55:29;;;;;;;362.80;187.13;;;18.60;99.90;;;;;;5037006;28;20238;-68
2022/09/03 08:58:05;;;;;;;356.90;178.43;;;18.50;99.90;;;;;;5044701;28;20904;-68
2022/09/03 09:01:00;;;;;;;416.57;209.87;;;18.70;99.90;;;;;;5043171;28;20191;-69
2022/09/03 09:03:44;;;;;;;345.80;174.10;;;18.90;99.90;;;;;;5038636;28;20204;-68
2022/09/03 09:06:20;;;;;;;337.90;173.73;;;18.90;99.90;;;;;;5043648;28;20211;-69
2022/09/03 09:08:46;;;;;;;372.80;193.07;;;;;;;;;;5044456;28;20219;-69
2022/09/03 09:11:23;;;;;;;366.20;189.20;;;19.20;99.90;;;;;;5046116;28;21196;-69
2022/09/03 09:13:57;;;;;;;509.57;255.60;;;19.40;99.90;;;;;;5039778;28;20219;-70
2022/09/03 09:16:37;;;;;;;347.57;174.33;;;19.60;99.90;;;;;;5032735;28;20921;-69
2022/09/03 09:19:34;;;;;;;351.50;180.70;;;19.60;99.90;;;;;;5044402;28;20220;-68
2022/09/03 09:22:10;;;;;;;380.77;189.27;;;20.80;99.90;;;;;;5040171;28;20237;-69
2022/09/03 09:24:42;;;;;;;347.75;179.85;;;19.80;99.90;;;;;;5044417;28;20215;-70
2022/09/03 09:27:08;;;;;;;345.23;180.10;;;;;;;;;;5039342;28;21133;-68
2022/09/03 09:29:38;;;;;;;377.83;194.33;;;19.80;49.90;;;;;;5036763;28;20223;-69
2022/09/03 09:32:09;;;;;;;366.80;189.73;;;19.80;20.00;;;;;;5039287;28;20253;-69
2022/09/03 09:34:36;;;;;;;519.57;242.23;;;19.80;26.10;;;;;;5070796;23;20282;-51
2022/09/03 09:37:09;;;;;;;428.85;221.18;;;18.20;18.10;;;;;;5068447;28;20214;-51
2022/09/03 09:39:34;;;;;;;399.35;210.38;;;;;;;;;;5080366;28;20711;-50
2022/09/03 09:42:04;;;;;;;398.83;205.93;;;20.10;1.00;;;;;;5071997;28;20278;-51
2022/09/03 09:44:30;;;;;;;357.80;187.10;;;;;;;;;;5078309;28;20288;-51
2022/09/03 09:47:07;;;;;;;383.43;202.20;;;20.10;1.00;;;;;;5077819;28;20237;-51
2022/09/03 09:49:44;;;;;;;358.93;191.17;;;20.00;99.90;;;;;;5074753;28;20566;-51
2022/09/03 09:52:12;;;;;;;344.90;189.20;;;20.00;1.00;;;;;;5087442;28;20374;-50
2022/09/03 09:54:40;;;;;;;367.93;192.87;;;20.20;1.00;;;;;;5072646;28;20246;-51
2022/09/03 09:57:13;;;;;;;381.13;204.57;;;20.10;1.00;;;;;;5085734;28;20666;-50
2022/09/03 09:59:39;;;;;;;383.63;202.93;;;;;;;;;;5073557;28;20736;-51
2022/09/03 10:02:05;;;;;;;348.03;183.70;;;;;;;;;;5077908;28;20203;-51
2022/09/03 10:04:31;;;;;;;355.33;188.77;;;;;;;;;;5073135;28;20579;-51
2022/09/03 10:07:18;;;;;;;373.93;197.30;;;20.50;1.00;;;;;;5069926;28;20634;-51
2022/09/03 10:09:44;;;;;;;364.63;197.93;;;20.50;1.00;;;;;;5075760;28;20538;-51
2022/09/03 10:12:23;;;;;;;388.63;202.43;;;20.30;1.00;;;;;;5072797;28;20244;-50
2022/09/03 10:15:20;;;;;;;356.33;191.15;;;20.80;1.00;;;;;;5075181;28;20287;-51
2022/09/03 10:18:13;;;;;;;389.27;208.77;;;20.60;1.00;;;;;;5074212;28;20210;-51
2022/09/03 10:20:58;;;;;;;356.40;197.32;;;20.70;1.00;;;;;;5073556;28;20238;-51
2022/09/03 10:23:28;;;;;;;387.10;202.73;;;20.90;1.00;;;;;;5075023;28;20214;-51
2022/09/03 10:26:17;;;;;;;370.92;194.73;;;21.20;1.00;;;;;;5072048;28;20553;-50
2022/09/03 10:28:51;;;;;;;369.43;199.63;;;21.10;1.00;;;;;;5069511;28;20207;-51
2022/09/03 10:31:42;;;;;;;337.77;188.25;;;20.80;1.00;;;;;;5071816;28;20383;-51
2022/09/03 10:34:38;;;;;;;365.15;199.55;;;20.80;1.00;;;;;;5080341;28;20316;-50
2022/09/03 10:37:13;;;;;;;383.20;202.77;;;20.90;1.00;;;;;;5097229;28;20254;-50
2022/09/03 10:40:19;;;;;;;403.80;217.82;;;21.00;99.90;;;;;;5094293;28;20189;-51
2022/09/03 10:43:03;;;;;;;404.95;209.55;;;21.10;1.00;;;;;;5085550;28;20198;-51
2022/09/03 10:45:51;;;;;;;364.67;194.15;;;21.10;1.00;;;;;;5096927;28;20306;-51
2022/09/03 10:48:45;;;;;;;351.13;191.23;;;21.20;1.00;;;;;;5094057;28;20185;-51
2022/09/03 10:51:26;;;;;;;389.25;209.05;;;21.50;1.00;;;;;;5075223;28;20206;-50
2022/09/03 10:54:31;;;;;;;359.55;197.73;;;21.80;1.00;;;;;;5077791;28;20554;-51
2022/09/03 10:57:02;;;;;;;373.23;208.27;;;21.90;91.60;;;;;;5093124;27;20206;-51
2022/09/03 10:59:52;;;;;;;366.65;212.73;;;22.10;1.00;;;;;;5096147;27;20275;-53
2022/09/03 11:02:33;;;;;;;355.58;204.63;;;22.00;1.00;;;;;;5102432;27;20677;-52
2022/09/03 11:05:04;;;;;;;383.47;207.90;;;20.40;1.00;;;;;;5104973;27;20214;-53
2022/09/03 11:07:41;;;;;;;365.75;205.13;;;22.10;99.90;;;;;;5093488;27;20692;-52
2022/09/03 11:10:25;;;;;;;398.30;222.90;;;21.80;1.00;;;;;;5100717;27;20553;-51
2022/09/03 11:12:57;;;;;;;414.17;224.80;;;21.50;99.90;;;;;;5090860;27;20206;-53
2022/09/03 11:15:25;;;;;;;506.67;256.80;;;21.90;1.00;;;;;;5074307;28;20252;-53
2022/09/03 11:18:06;;;;;;;430.33;236.98;;;21.60;1.00;;;;;;5096475;27;20265;-52
2022/09/03 11:20:33;;;;;;;372.92;215.20;;;;;;;;;;5087309;28;20424;-52
2022/09/03 11:23:03;;;;;;;416.00;234.20;;;22.00;1.00;;;;;;5096122;27;20515;-52
2022/09/03 11:25:35;;;;;;;432.50;240.43;;;21.90;1.00;;;;;;5093310;27;20213;-52
2022/09/03 11:28:11;;;;;;;455.35;233.52;;;21.60;1.00;;;;;;5086257;27;20205;-52
2022/09/03 11:30:59;;;;;;;397.60;219.23;;;21.50;1.00;;;;;;5093874;27;20181;-53
2022/09/03 11:33:27;;;;;;;450.17;252.85;;;21.70;1.00;;;;;;5091022;27;21423;-52
2022/09/03 11:35:59;;;;;;;411.15;237.68;;;21.90;1.00;;;;;;5089598;27;20225;-53
2022/09/03 11:38:32;;;;;;;439.77;244.60;;;22.30;1.00;;;;;;5085564;27;20254;-52
2022/09/03 11:41:14;;;;;;;410.77;231.43;;;22.60;1.00;;;;;;5098059;27;20632;-53
2022/09/03 11:43:43;;;;;;;390.80;227.10;;;23.00;1.00;;;;;;5091927;27;20765;-53
2022/09/03 11:46:20;;;;;;;372.27;217.13;;;23.30;1.00;;;;;;5095087;27;20221;-53
2022/09/03 11:48:47;;;;;;;386.77;228.90;;;23.40;1.00;;;;;;5096064;27;20651;-53
2022/09/03 11:51:29;;;;;;;385.60;231.05;;;23.90;1.00;;;;;;5096979;27;20561;-53
2022/09/03 11:54:14;;;;;;;416.48;246.25;;;24.10;1.00;;;;;;5098623;27;20535;-53
2022/09/03 11:56:41;;;;;;;381.13;234.18;;;24.30;1.00;;;;;;5094167;27;20461;-53
2022/09/03 11:59:13;;;;;;;410.20;249.60;;;24.30;89.60;;;;;;5107485;27;20218;-54
2022/09/03 12:01:44;;;;;;;384.38;240.07;;;24.10;1.00;;;;;;5102530;27;20210;-52
2022/09/03 12:04:14;;;;;;;432.52;264.48;;;24.20;1.00;;;;;;5081270;27;20249;-52
2022/09/03 12:07:07;;;;;;;457.25;272.60;;;23.90;1.00;;;;;;5083626;27;20177;-53
2022/09/03 12:09:50;;;;;;;444.73;261.58;;;25.50;1.00;;;;;;5069152;28;20178;-53
2022/09/03 12:12:45;;;;;;;418.17;246.57;;;23.60;35.90;;;;;;5077425;28;20177;-53
2022/09/03 12:15:45;;;;;;;426.95;262.67;;;23.60;1.00;;;;;;5091338;28;20276;-52
2022/09/03 12:18:20;;;;;;;389.60;246.27;;;23.20;1.00;;;;;;5073325;28;20235;-52
2022/09/03 12:21:02;;;;;;;395.30;248.80;;;23.00;99.90;;;;;;5073013;28;20232;-53
2022/09/03 12:23:33;;;;;;;432.23;264.60;;;23.20;67.50;;;;;;5062943;28;20214;-53
2022/09/03 12:26:13;;;;;;;360.52;226.98;;;23.60;1.00;;;;;;5073868;28;20215;-53
2022/09/03 12:28:40;;;;;;;418.67;260.02;;;23.70;1.00;;;;;;5071356;28;20211;-52
2022/09/03 12:31:24;;;;;;;456.02;278.42;;;22.10;1.00;;;;;;5068430;28;20701;-52
2022/09/03 12:33:50;;;;;;;359.77;227.40;;;;;;;;;;5071085;28;20656;-52
2022/09/03 12:36:16;;;;;;;377.90;239.02;;;24.10;1.00;;;;;;5069327;28;20174;-53
2022/09/03 12:38:42;;;;;;;370.40;236.82;;;;;;;;;;5076387;28;20267;-53
2022/09/03 12:41:26;;;;;;;437.35;266.30;;;24.30;1.00;;;;;;5075683;28;20252;-52
2022/09/03 12:43:54;;;;;;;428.80;258.58;;;23.90;1.00;;;;;;5071736;28;20214;-52
2022/09/03 12:46:25;;;;;;;380.25;229.07;;;24.20;1.00;;;;;;5071239;28;20702;-53
2022/09/03 12:49:04;;;;;;;378.33;235.73;;;24.70;1.00;;;;;;5081423;28;20260;-53
2022/09/03 12:51:36;;;;;;;446.95;269.00;;;25.00;1.00;;;;;;5073013;28;20178;-54
2022/09/03 12:54:06;;;;;;;375.73;240.45;;;25.40;97.60;;;;;;5081704;28;20230;-54
2022/09/03 12:56:32;;;;;;;372.23;236.60;;;;;;;;;;5080121;28;20303;-53
2022/09/03 12:59:05;;;;;;;367.00;231.40;;;25.70;99.90;;;;;;5067014;28;20614;-53
2022/09/03 13:01:37;;;;;;;373.40;245.05;;;25.70;99.90;;;;;;5087025;28;20202;-53
2022/09/03 13:04:09;;;;;;;394.63;257.10;;;25.40;1.00;;;;;;5076164;28;20245;-52
2022/09/03 13:07:10;;;;;;;409.55;266.02;;;25.10;1.00;;;;;;5068581;28;20389;-52
2022/09/03 13:09:38;;;;;;;420.45;275.17;;;25.40;1.00;;;;;;5072119;28;20183;-52
2022/09/03 13:12:04;;;;;;;394.02;260.30;;;;;;;;;;5079179;28;20179;-52
2022/09/03 13:14:46;;;;;;;478.35;294.42;;;26.00;1.00;;;;;;5062371;28;20437;-52